Terminal Aerodrome Forecast
Issued by NWS

Home | Current Version | Previous Version | Text Only | Print | Product List | Glossary On
Versions: 1 2 3 4 5 6 7 8 9 10 11 12 13 14 15 16
000
FTUS45 KGJT 290539
TAFVEL
TAF
KVEL 290539Z 2906/3006 02013G22KT P6SM OVC070
     FM291500 05018G25KT P6SM BKN100
     FM300100 03012G20KT P6SM FEW200
     FM300200 03008KT P6SM FEW250=

USA.gov is the U.S. government's official web portal to all federal, state and local government web resources and services.